Terminal Aerodrome Forecast
Issued by NWS Green Bay, WI

Home | Current Version | Previous Version | Graphics & Text | Print | Product List | Glossary On
Versions: 1 2 3 4 5 6 7 8 9 10 11 12 13 14 15
000
FTUS43 KGRB 212209 AAC
TAFGRB
TAF AMD
KGRB 212209Z 2122/2218 13010KT P6SM SCT050
     FM220000 16011KT P6SM SCT120 BKN250 WS018/20045KT
     FM220700 17011KT P6SM SCT035 OVC060 WS018/21045KT PROB30
      2208/2212 5SM -SHRA BR BKN035
     FM221200 18011KT P6SM -SHRA SCT020 OVC040 WS018/21045KT
      TEMPO 2212/2216 4SM -TSRA BR BKN020CB
     FM221600 24011KT 5SM -SHRA BR OVC020=

USA.gov is the U.S. government's official web portal to all federal, state and local government web resources and services.